createdAt,value
2018-12-02T00:01:45.177Z,71.30
2018-12-02T00:04:13.703Z,71.84
2018-12-02T00:06:42.661Z,72.57
2018-12-02T00:09:11.323Z,73.58
2018-12-02T00:11:39.885Z,72.30
2018-12-02T00:14:08.442Z,73.02
2018-12-02T00:16:37.397Z,73.08
2018-12-02T00:19:05.978Z,72.95
2018-12-02T00:21:34.532Z,73.25
2018-12-02T00:24:04.793Z,72.95
2018-12-02T00:26:33.333Z,73.00
2018-12-02T00:29:01.853Z,72.80
2018-12-02T00:31:30.591Z,73.41
2018-12-02T00:33:59.763Z,73.48
2018-12-02T00:36:28.332Z,72.93
2018-12-02T00:38:56.859Z,73.26
2018-12-02T00:41:25.376Z,73.68
2018-12-02T00:43:54.343Z,73.09
2018-12-02T00:46:22.877Z,73.29
2018-12-02T00:48:51.410Z,73.07
2018-12-02T00:51:20.386Z,73.16
2018-12-02T00:53:48.948Z,72.11
2018-12-02T00:56:16.306Z,72.51
2018-12-02T00:58:45.174Z,72.90
2018-12-02T01:01:13.680Z,72.81
2018-12-02T01:03:42.254Z,72.07
2018-12-02T01:06:11.245Z,71.99
2018-12-02T01:08:39.774Z,72.46
2018-12-02T01:11:08.554Z,72.62
2018-12-02T01:13:37.133Z,71.21
2018-12-02T01:16:06.267Z,71.09
2018-12-02T01:18:34.850Z,71.77
2018-12-02T01:21:03.396Z,71.21
2018-12-02T01:23:31.990Z,71.35
2018-12-02T01:26:00.625Z,71.30
2018-12-02T01:28:29.195Z,71.07
2018-12-02T01:30:57.706Z,70.65
2018-12-02T01:33:26.236Z,70.82
2018-12-02T01:35:54.832Z,70.13
2018-12-02T01:38:23.398Z,69.50
2018-12-02T01:40:52.346Z,70.02
2018-12-02T01:43:20.995Z,69.64
2018-12-02T01:45:49.573Z,69.58
2018-12-02T01:48:18.669Z,69.73
2018-12-02T01:50:47.199Z,69.03
2018-12-02T01:53:15.821Z,69.14
2018-12-02T01:55:44.384Z,69.41
2018-12-02T01:58:13.335Z,69.61
2018-12-02T02:00:41.867Z,69.74
2018-12-02T02:03:10.436Z,70.31
2018-12-02T02:05:39.406Z,69.53
2018-12-02T02:08:07.961Z,70.29
2018-12-02T02:10:36.508Z,70.08
2018-12-02T02:13:05.458Z,70.17
2018-12-02T02:15:34.034Z,71.08
2018-12-02T02:18:03.226Z,70.60
2018-12-02T02:20:31.995Z,71.48
2018-12-02T02:23:00.857Z,72.65
2018-12-02T02:25:29.405Z,72.82
2018-12-02T02:27:58.863Z,72.28
2018-12-02T02:30:28.620Z,72.21
2018-12-02T02:32:57.215Z,73.28
2018-12-02T02:35:25.707Z,73.30
2018-12-02T02:37:56.585Z,72.77
2018-12-02T02:40:27.256Z,73.27
2018-12-02T02:42:55.761Z,74.20
2018-12-02T02:45:24.369Z,73.85
2018-12-02T02:47:52.953Z,73.54
2018-12-02T02:50:22.409Z,73.64
2018-12-02T02:52:52.886Z,73.90
2018-12-02T02:55:21.780Z,74.04
2018-12-02T02:57:50.380Z,74.00
2018-12-02T03:00:19.845Z,73.03
2018-12-02T03:02:48.334Z,72.83
2018-12-02T03:05:17.871Z,73.15
2018-12-02T03:07:46.520Z,73.44
2018-12-02T03:10:17.968Z,73.41
2018-12-02T03:12:47.351Z,73.05
2018-12-02T03:15:16.639Z,72.99
2018-12-02T03:17:45.234Z,73.25
2018-12-02T03:20:14.657Z,72.85
2018-12-02T03:22:44.592Z,72.50
2018-12-02T03:25:15.298Z,72.80
2018-12-02T03:27:43.946Z,72.66
2018-12-02T03:30:28.571Z,72.58
2018-12-02T03:32:57.177Z,72.29
2018-12-02T03:35:26.942Z,72.64
2018-12-02T03:37:56.376Z,72.10
2018-12-02T03:40:26.752Z,72.26
2018-12-02T03:42:55.822Z,72.60
2018-12-02T03:45:25.283Z,72.34
2018-12-02T03:47:53.861Z,72.63
2018-12-02T03:50:23.095Z,72.79
2018-12-02T03:52:52.034Z,71.88
2018-12-02T03:55:20.577Z,72.87
2018-12-02T03:57:49.179Z,72.98
2018-12-02T04:00:23.478Z,72.92
2018-12-02T04:02:52.831Z,73.16
2018-12-02T04:05:23.052Z,72.99
2018-12-02T04:07:51.867Z,73.31
2018-12-02T04:10:20.723Z,74.31
2018-12-02T04:12:50.164Z,76.52
2018-12-02T04:15:23.915Z,77.67
2018-12-02T04:17:52.561Z,79.14
2018-12-02T04:20:21.483Z,78.29
2018-12-02T04:22:52.586Z,79.97
2018-12-02T04:25:22.158Z,80.66
2018-12-02T04:27:50.752Z,80.00
2018-12-02T04:30:20.101Z,80.68
2018-12-02T04:32:50.833Z,81.51
2018-12-02T04:35:23.162Z,82.09
2018-12-02T04:37:51.697Z,82.56
2018-12-02T04:40:20.315Z,82.49
2018-12-02T04:42:49.091Z,82.60
2018-12-02T04:45:18.408Z,83.24
2018-12-02T04:47:47.352Z,83.48
2018-12-02T04:50:19.869Z,83.61
2018-12-02T04:52:48.507Z,84.61
2018-12-02T04:55:17.059Z,84.25
2018-12-02T04:57:45.923Z,84.74
2018-12-02T05:00:15.440Z,85.08
2018-12-02T05:02:44.641Z,84.39
2018-12-02T05:05:14.296Z,84.94
2018-12-02T05:07:43.106Z,85.27
2018-12-02T05:10:15.302Z,85.48
2018-12-02T05:12:44.015Z,84.87
2018-12-02T05:15:15.766Z,84.97
2018-12-02T05:17:44.255Z,84.85
2018-12-02T05:20:13.747Z,85.49
2018-12-02T05:22:42.210Z,84.54
2018-12-02T05:25:17.578Z,85.63
2018-12-02T05:27:40.579Z,86.36
2018-12-02T05:30:11.369Z,85.89
2018-12-02T05:32:40.252Z,86.23
2018-12-02T05:35:09.593Z,86.44
2018-12-02T05:37:38.067Z,86.81
2018-12-02T05:40:09.765Z,87.07
2018-12-02T05:42:38.573Z,86.82
2018-12-02T05:45:09.360Z,87.58
2018-12-02T05:47:37.826Z,87.32
2018-12-02T05:50:23.484Z,88.30
2018-12-02T05:52:54.956Z,88.51
2018-12-02T05:55:24.733Z,89.02
2018-12-02T05:57:53.725Z,89.05
2018-12-02T06:00:22.724Z,89.17
2018-12-02T06:02:51.265Z,88.92
2018-12-02T06:05:19.797Z,89.53
2018-12-02T06:07:48.796Z,89.86
2018-12-02T06:10:18.216Z,90.39
2018-12-02T06:12:46.778Z,90.93
2018-12-02T06:15:17.972Z,90.45
2018-12-02T06:17:46.512Z,90.53
2018-12-02T06:20:17.771Z,90.78
2018-12-02T06:22:46.461Z,91.84
2018-12-02T06:25:15.322Z,90.98
2018-12-02T06:27:44.021Z,90.89
2018-12-02T06:30:15.248Z,90.98
2018-12-02T06:32:44.043Z,91.60
2018-12-02T06:35:13.697Z,91.73
2018-12-02T06:37:42.265Z,91.45
2018-12-02T06:40:17.818Z,91.08
2018-12-02T06:42:46.343Z,91.58
2018-12-02T06:45:15.033Z,91.19
2018-12-02T06:47:43.623Z,90.72
2018-12-02T06:50:19.210Z,91.06
2018-12-02T06:52:47.773Z,90.99
2018-12-02T06:55:35.207Z,90.82
2018-12-02T06:58:20.090Z,90.58
2018-12-02T07:01:02.000Z,89.95
2018-12-02T07:03:36.563Z,91.25
2018-12-02T07:06:07.120Z,90.23
2018-12-02T07:08:35.658Z,90.64
2018-12-02T07:11:04.247Z,90.05
2018-12-02T07:13:32.757Z,91.04
2018-12-02T07:16:01.263Z,90.88
2018-12-02T07:18:30.811Z,90.74
2018-12-02T07:21:00.403Z,91.09
2018-12-02T07:23:30.584Z,90.89
2018-12-02T07:26:02.837Z,91.15
2018-12-02T07:28:31.432Z,91.29
2018-12-02T07:30:59.967Z,90.94
2018-12-02T07:33:28.591Z,91.00
2018-12-02T07:35:57.605Z,91.15
2018-12-02T07:40:34.146Z,91.10
2018-12-02T07:43:03.467Z,91.18
2018-12-02T07:45:32.302Z,91.65
2018-12-02T07:48:00.790Z,92.10
2018-12-02T07:50:29.294Z,91.44
2018-12-02T07:52:57.807Z,91.64
2018-12-02T07:55:26.385Z,91.44
2018-12-02T07:57:54.988Z,91.72
2018-12-02T08:00:23.868Z,91.95
2018-12-02T08:02:52.450Z,92.17
2018-12-02T08:05:20.930Z,91.37
2018-12-02T08:07:50.445Z,91.46
2018-12-02T08:10:19.431Z,92.29
2018-12-02T08:12:47.982Z,92.44
2018-12-02T08:15:18.556Z,92.80
2018-12-02T08:17:47.564Z,92.33
2018-12-02T08:20:17.849Z,92.89
2018-12-02T08:22:51.371Z,92.62
2018-12-02T08:25:16.938Z,92.27
2018-12-02T08:27:45.474Z,92.00
2018-12-02T08:30:18.543Z,92.03
2018-12-02T08:32:49.205Z,92.11
2018-12-02T08:35:18.742Z,92.72
2018-12-02T08:37:48.630Z,92.25
2018-12-02T08:40:17.289Z,92.58
2018-12-02T08:42:46.348Z,91.27
2018-12-02T08:45:15.850Z,91.76
2018-12-02T08:47:44.917Z,92.28
2018-12-02T08:50:16.644Z,92.44
2018-12-02T08:52:45.641Z,92.29
2018-12-02T08:55:17.069Z,92.79
2018-12-02T08:57:46.301Z,92.34
2018-12-02T09:00:17.527Z,92.20
2018-12-02T09:02:48.176Z,91.17
2018-12-02T09:05:17.150Z,91.79
2018-12-02T09:07:45.701Z,92.24
2018-12-02T09:10:24.033Z,91.74
2018-12-02T09:12:56.056Z,92.42
2018-12-02T09:15:24.623Z,91.60
2018-12-02T09:17:53.214Z,91.88
2018-12-02T09:20:28.060Z,91.43
2018-12-02T09:22:57.101Z,90.69
2018-12-02T09:25:25.873Z,91.19
2018-12-02T09:27:54.487Z,91.57
2018-12-02T09:30:26.384Z,91.30
2018-12-02T09:32:54.937Z,90.10
2018-12-02T09:35:23.473Z,91.43
2018-12-02T09:37:52.412Z,91.04
2018-12-02T09:40:20.912Z,90.85
2018-12-02T09:42:51.700Z,90.62
2018-12-02T09:45:28.039Z,91.82
2018-12-02T09:47:59.011Z,92.02
2018-12-02T09:50:27.562Z,91.61
2018-12-02T09:52:56.829Z,92.10
2018-12-02T09:55:27.623Z,92.65
2018-12-02T09:57:57.186Z,92.63
2018-12-02T10:00:25.855Z,93.10
2018-12-02T10:02:54.376Z,92.81
2018-12-02T10:05:23.358Z,93.09
2018-12-02T10:07:51.949Z,93.74
2018-12-02T10:10:23.043Z,93.97
2018-12-02T10:12:56.475Z,93.99
2018-12-02T10:15:25.026Z,93.71
2018-12-02T10:17:53.645Z,93.90
2018-12-02T10:20:22.262Z,94.37
2018-12-02T10:22:50.818Z,94.04
2018-12-02T10:25:20.225Z,94.72
2018-12-02T10:27:48.882Z,94.62
2018-12-02T10:30:20.259Z,94.12
2018-12-02T10:32:49.595Z,94.42
2018-12-02T10:35:18.209Z,94.96
2018-12-02T10:37:47.018Z,94.71
2018-12-02T10:40:19.904Z,94.57
2018-12-02T10:42:49.200Z,94.73
2018-12-02T10:45:20.678Z,94.71
2018-12-02T10:47:50.494Z,95.24
2018-12-02T10:50:22.303Z,94.31
2018-12-02T10:52:51.610Z,94.79
2018-12-02T10:55:25.520Z,94.09
2018-12-02T10:57:54.262Z,93.84
2018-12-02T11:00:28.079Z,94.04
2018-12-02T11:02:56.680Z,93.65
2018-12-02T11:05:25.350Z,93.67
2018-12-02T11:07:54.489Z,93.54
2018-12-02T11:10:23.096Z,92.89
2018-12-02T11:12:52.017Z,92.99
2018-12-02T11:15:20.975Z,93.71
2018-12-02T11:17:49.578Z,93.58
2018-12-02T11:20:18.138Z,92.91
2018-12-02T11:25:46.002Z,93.60
2018-12-02T11:28:15.007Z,93.14
2018-12-02T11:30:43.613Z,93.61
2018-12-02T11:33:12.214Z,93.12
2018-12-02T11:35:41.109Z,93.29
2018-12-02T11:38:09.870Z,93.82
2018-12-02T11:40:39.468Z,93.40
2018-12-02T11:43:09.076Z,93.99
2018-12-02T11:45:37.730Z,94.14
2018-12-02T11:48:08.104Z,93.57
2018-12-02T11:50:37.311Z,94.37
2018-12-02T11:53:06.300Z,93.51
2018-12-02T11:55:34.923Z,93.01
2018-12-02T11:58:05.724Z,91.98
2018-12-02T12:00:35.988Z,92.35
2018-12-02T12:03:04.535Z,92.54
2018-12-02T12:05:33.406Z,92.43
2018-12-02T12:08:02.645Z,91.44
2018-12-02T12:10:31.251Z,92.57
2018-12-02T12:13:01.050Z,92.16
2018-12-02T12:15:30.644Z,92.15
2018-12-02T12:17:59.868Z,92.35
2018-12-02T12:22:57.038Z,92.09
2018-12-02T12:25:25.979Z,91.53
2018-12-02T12:27:55.920Z,90.94
2018-12-02T12:30:27.352Z,91.43
2018-12-02T12:32:56.045Z,91.27
2018-12-02T12:35:25.307Z,91.63
2018-12-02T12:37:53.982Z,91.77
2018-12-02T12:40:25.647Z,92.29
2018-12-02T12:42:59.246Z,92.05
2018-12-02T12:47:50.824Z,91.80
2018-12-02T12:50:19.890Z,91.93
2018-12-02T12:52:48.461Z,92.02
2018-12-02T12:55:17.579Z,91.43
2018-12-02T12:57:46.883Z,92.46
2018-12-02T13:00:19.726Z,92.21
2018-12-02T13:02:48.421Z,92.00
2018-12-02T13:05:19.537Z,91.97
2018-12-02T13:07:48.267Z,92.36
2018-12-02T13:10:17.492Z,91.89
2018-12-02T13:12:46.535Z,91.69
2018-12-02T13:15:18.001Z,91.75
2018-12-02T13:17:48.316Z,91.91
2018-12-02T13:20:19.066Z,91.40
2018-12-02T13:22:48.471Z,91.42
2018-12-02T13:25:17.146Z,92.01
2018-12-02T13:27:46.684Z,91.20
2018-12-02T13:30:17.118Z,91.36
2018-12-02T13:32:46.673Z,92.43
2018-12-02T13:35:15.567Z,91.53
2018-12-02T13:37:44.104Z,92.02
2018-12-02T13:40:14.939Z,91.81
2018-12-02T13:42:45.927Z,91.89
2018-12-02T13:45:16.779Z,91.81
2018-12-02T13:47:45.355Z,91.52
2018-12-02T13:50:15.326Z,92.11
2018-12-02T13:52:43.987Z,92.24
2018-12-02T13:55:15.442Z,92.37
2018-12-02T13:57:44.507Z,91.83
2018-12-02T14:00:18.108Z,91.69
2018-12-02T14:02:54.473Z,91.65
2018-12-02T14:05:23.717Z,91.44
2018-12-02T14:07:52.286Z,91.04
2018-12-02T14:10:20.902Z,90.54
2018-12-02T14:12:54.969Z,91.03
2018-12-02T14:15:38.821Z,90.96
2018-12-02T14:18:40.767Z,90.52
2018-12-02T14:21:09.394Z,90.32
2018-12-02T14:23:40.691Z,90.30
2018-12-02T14:26:10.830Z,89.97
2018-12-02T14:28:45.093Z,89.36
2018-12-02T14:31:13.746Z,88.04
2018-12-02T14:33:42.340Z,89.18
2018-12-02T14:36:11.244Z,88.44
2018-12-02T14:38:40.342Z,88.69
2018-12-02T14:41:08.409Z,89.13
2018-12-02T14:43:37.485Z,88.01
2018-12-02T14:46:06.189Z,88.48
2018-12-02T14:48:35.307Z,88.78
2018-12-02T14:51:04.229Z,88.66
2018-12-02T14:53:32.811Z,88.51
2018-12-02T14:56:01.514Z,88.80
2018-12-02T14:58:30.386Z,88.99
2018-12-02T15:00:59.735Z,89.77
2018-12-02T15:03:28.362Z,89.21
2018-12-02T15:05:57.282Z,88.45
2018-12-02T15:08:26.136Z,88.69
2018-12-02T15:10:54.729Z,88.13
2018-12-02T15:13:23.228Z,88.39
2018-12-02T15:15:52.057Z,89.61
2018-12-02T15:18:20.670Z,89.59
2018-12-02T15:20:49.372Z,89.50
2018-12-02T15:23:18.214Z,90.87
2018-12-02T15:25:46.862Z,88.98
2018-12-02T15:28:15.495Z,90.31
2018-12-02T15:30:44.532Z,89.08
2018-12-02T15:33:13.199Z,89.11
2018-12-02T15:35:41.878Z,89.82
2018-12-02T15:38:10.699Z,89.41
2018-12-02T15:40:39.571Z,89.23
2018-12-02T15:43:08.225Z,90.22
2018-12-02T15:45:36.875Z,90.27
2018-12-02T15:48:05.496Z,90.39
2018-12-02T15:50:34.069Z,90.23
2018-12-02T15:53:02.937Z,90.23
2018-12-02T15:55:32.733Z,90.30
2018-12-02T15:58:04.669Z,90.01
2018-12-02T16:00:35.888Z,90.03
2018-12-02T16:03:04.499Z,90.54
2018-12-02T16:05:33.058Z,89.48
2018-12-02T16:08:02.582Z,90.61
2018-12-02T16:10:31.223Z,89.83
2018-12-02T16:12:59.762Z,89.93
2018-12-02T16:15:32.033Z,90.80
2018-12-02T16:18:00.730Z,91.17
2018-12-02T16:20:43.889Z,90.03
2018-12-02T16:23:13.016Z,91.37
2018-12-02T16:25:41.587Z,90.86
2018-12-02T16:28:10.189Z,90.16
2018-12-02T16:30:39.098Z,91.22
2018-12-02T16:33:07.646Z,92.05
2018-12-02T16:35:36.408Z,91.81
2018-12-02T16:38:08.258Z,91.16
2018-12-02T16:40:36.814Z,91.60
2018-12-02T16:43:05.683Z,92.06
2018-12-02T16:45:34.515Z,92.17
2018-12-02T16:48:03.791Z,91.69
2018-12-02T16:50:35.402Z,92.60
2018-12-02T16:53:09.109Z,92.79
2018-12-02T16:55:40.050Z,92.43
2018-12-02T16:58:16.035Z,91.76
2018-12-02T17:00:53.499Z,91.33
2018-12-02T17:03:22.360Z,93.18
2018-12-02T17:05:50.974Z,93.27
2018-12-02T17:08:20.000Z,93.42
2018-12-02T17:10:50.419Z,92.42
2018-12-02T17:13:17.593Z,92.50
2018-12-02T17:15:46.272Z,92.82
2018-12-02T17:18:15.296Z,93.61
2018-12-02T17:20:43.866Z,93.23
2018-12-02T17:23:12.474Z,93.76
2018-12-02T17:25:41.533Z,93.67
2018-12-02T17:28:10.181Z,93.73
2018-12-02T17:30:49.051Z,93.81
2018-12-02T17:33:17.963Z,93.36
2018-12-02T17:35:46.626Z,93.62
2018-12-02T17:38:15.314Z,94.04
2018-12-02T17:40:45.260Z,93.84
2018-12-02T17:43:13.930Z,93.16
2018-12-02T17:45:42.648Z,93.84
2018-12-02T17:48:11.249Z,93.32
2018-12-02T17:50:39.873Z,93.55
2018-12-02T17:53:10.750Z,94.14
2018-12-02T17:55:40.148Z,93.58
2018-12-02T17:58:08.758Z,93.09
2018-12-02T18:00:37.669Z,93.78
2018-12-02T18:03:07.895Z,94.24
2018-12-02T18:05:41.446Z,94.40
2018-12-02T18:08:10.339Z,94.62
2018-12-02T18:10:39.013Z,94.35
2018-12-02T18:13:07.615Z,94.42
2018-12-02T18:15:36.574Z,94.52
2018-12-02T18:18:06.502Z,93.83
2018-12-02T18:21:37.718Z,94.24
2018-12-02T18:24:06.734Z,94.61
2018-12-02T18:26:35.315Z,94.19
2018-12-02T18:29:04.214Z,95.11
2018-12-02T18:31:32.793Z,94.70
2018-12-02T18:34:03.334Z,94.04
2018-12-02T18:36:33.908Z,94.57
2018-12-02T18:39:02.721Z,93.88
2018-12-02T18:41:38.761Z,94.09
2018-12-02T18:44:09.350Z,94.32
2018-12-02T18:46:38.021Z,94.69
2018-12-02T18:49:06.718Z,94.22
2018-12-02T18:51:35.654Z,93.72
2018-12-02T18:54:07.155Z,94.69
2018-12-02T18:56:35.787Z,94.26
2018-12-02T18:59:04.678Z,94.45
2018-12-02T19:01:33.352Z,95.36
2018-12-02T19:04:04.089Z,95.67
2018-12-02T19:06:32.929Z,96.29
2018-12-02T19:09:01.556Z,98.18
2018-12-02T19:11:30.144Z,97.67
2018-12-02T19:13:59.073Z,97.53
2018-12-02T19:16:27.650Z,97.26
2018-12-02T19:18:56.237Z,97.47
2018-12-02T19:21:26.954Z,98.12
2018-12-02T19:23:57.409Z,97.02
2018-12-02T19:26:26.066Z,96.98
2018-12-02T19:28:54.904Z,97.32
2018-12-02T19:31:24.248Z,96.90
2018-12-02T19:33:54.524Z,96.86
2018-12-02T19:36:27.204Z,95.96
2018-12-02T19:38:55.845Z,96.18
2018-12-02T19:41:24.377Z,96.75
2018-12-02T19:43:53.202Z,97.23
2018-12-02T19:46:21.805Z,96.57
2018-12-02T19:48:50.595Z,96.33
2018-12-02T19:51:19.461Z,96.20
2018-12-02T19:53:48.080Z,95.92
2018-12-02T19:56:17.249Z,96.40
2018-12-02T19:58:47.069Z,96.61
2018-12-02T20:01:15.596Z,97.45
2018-12-02T20:03:44.178Z,98.14
2018-12-02T20:06:12.786Z,97.08
2018-12-02T20:08:41.806Z,96.42
2018-12-02T20:11:10.443Z,95.56
2018-12-02T20:13:38.976Z,95.76
2018-12-02T20:16:13.021Z,95.83
2018-12-02T20:18:41.578Z,94.73
2018-12-02T20:21:10.570Z,95.11
2018-12-02T20:23:44.741Z,95.67
2018-12-02T20:26:13.411Z,95.77
2018-12-02T20:28:45.280Z,96.53
2018-12-02T20:31:17.634Z,96.73
2018-12-02T20:33:46.220Z,97.02
2018-12-02T20:36:15.417Z,96.62
2018-12-02T20:38:43.963Z,97.03
2018-12-02T20:41:12.589Z,96.66
2018-12-02T20:43:41.419Z,96.74
2018-12-02T20:46:10.089Z,97.11
2018-12-02T20:48:38.608Z,96.63
2018-12-02T20:51:07.230Z,97.38
2018-12-02T20:53:36.052Z,97.95
2018-12-02T20:56:05.405Z,98.29
2018-12-02T20:58:34.814Z,98.96
2018-12-02T21:01:03.668Z,99.14
2018-12-02T21:03:35.379Z,99.29
2018-12-02T21:06:07.065Z,99.65
2018-12-02T21:08:35.647Z,99.85
2018-12-02T21:11:04.201Z,99.10
2018-12-02T21:13:33.647Z,98.82
2018-12-02T21:16:03.982Z,99.00
2018-12-02T21:18:32.522Z,98.89
2018-12-02T21:21:01.078Z,99.09
2018-12-02T21:23:29.970Z,99.34
2018-12-02T21:25:59.074Z,98.79
2018-12-02T21:28:27.658Z,99.53
2018-12-02T21:30:56.491Z,99.20
2018-12-02T21:33:24.968Z,98.85
2018-12-02T21:35:53.549Z,98.59
2018-12-02T21:38:22.095Z,98.11
2018-12-02T21:40:51.104Z,97.63
2018-12-02T21:43:19.689Z,98.21
2018-12-02T21:45:48.259Z,98.48
2018-12-02T21:48:18.641Z,98.29
2018-12-02T21:50:51.126Z,98.74
2018-12-02T21:53:20.074Z,99.26
2018-12-02T21:55:49.043Z,99.02
2018-12-02T21:58:17.885Z,98.58
2018-12-02T22:00:52.136Z,99.22
2018-12-02T22:03:20.684Z,98.60
2018-12-02T22:05:49.702Z,98.79
2018-12-02T22:08:18.383Z,98.87
2018-12-02T22:10:47.869Z,98.61
2018-12-02T22:13:16.451Z,98.51
2018-12-02T22:15:45.050Z,98.54
2018-12-02T22:18:13.887Z,97.46
2018-12-02T22:20:42.429Z,98.10
2018-12-02T22:23:10.970Z,97.94
2018-12-02T22:25:39.585Z,98.09
2018-12-02T22:28:09.204Z,97.58
2018-12-02T22:30:38.050Z,98.58
2018-12-02T22:33:07.100Z,98.94
2018-12-02T22:35:36.044Z,98.47
2018-12-02T22:38:06.133Z,98.56
2018-12-02T22:40:34.790Z,98.62
2018-12-02T22:43:03.398Z,98.69
2018-12-02T22:45:31.966Z,98.86
2018-12-02T22:48:00.815Z,98.42
2018-12-02T22:50:30.698Z,98.44
2018-12-02T22:53:00.171Z,97.83
2018-12-02T22:55:28.786Z,97.43
2018-12-02T22:57:57.570Z,97.51
2018-12-02T23:00:35.503Z,97.76
2018-12-02T23:03:06.725Z,97.65
2018-12-02T23:05:35.251Z,98.70
2018-12-02T23:08:04.382Z,98.02
2018-12-02T23:10:32.956Z,97.83
2018-12-02T23:13:01.767Z,98.54
2018-12-02T23:15:30.348Z,98.44
2018-12-02T23:17:58.887Z,98.16
2018-12-02T23:20:27.681Z,98.31
2018-12-02T23:22:56.205Z,98.96
2018-12-02T23:25:24.755Z,98.35
2018-12-02T23:27:53.358Z,97.72
2018-12-02T23:30:23.958Z,97.62
2018-12-02T23:32:52.535Z,97.57
2018-12-02T23:35:21.151Z,97.06
2018-12-02T23:37:49.693Z,97.02
2018-12-02T23:40:19.342Z,97.86
2018-12-02T23:42:47.870Z,97.48
2018-12-02T23:45:17.280Z,97.68
2018-12-02T23:47:45.865Z,98.35
2018-12-02T23:50:16.221Z,98.30
2018-12-02T23:52:44.838Z,97.58
2018-12-02T23:55:14.819Z,96.39
2018-12-02T23:57:43.526Z,97.03
